Time;durP1;ratioP1;P1;durP2;ratioP2;P2;SDS_P1;SDS_P2;PMS_P1;PMS_P2;Temp;Humidity;BMP_temperature;BMP_pressure;BME280_temperature;BME280_humidity;BME280_pressure;Samples;Min_cycle;Max_cycle;Signal;HPM_P1;HPM_P2
2023/02/22 00:00:22;;;;;;;;;;;2.60;1.00;;;;;;4992199;28;19914;-74
2023/02/22 00:02:49;;;;;;;;;;;2.60;1.00;;;;;;4995279;28;19918;-74
2023/02/22 00:05:18;;;;;;;;;;;2.60;1.00;;;;;;4993363;28;20383;-74
2023/02/22 00:07:47;;;;;;;;;;;2.50;1.00;;;;;;4992944;28;19917;-74
2023/02/22 00:10:17;;;;;;;;;;;2.50;1.00;;;;;;4992265;28;20355;-74
2023/02/22 00:12:48;;;;;;;;;;;2.40;1.00;;;;;;4993401;28;20275;-74
2023/02/22 00:15:15;;;;;;;;;;;2.40;1.00;;;;;;4993864;28;20351;-74
2023/02/22 00:17:42;;;;;;;;;;;2.40;1.00;;;;;;4993431;28;19918;-74
2023/02/22 00:20:18;;;;;;;;;;;2.50;1.00;;;;;;4992074;28;20770;-74
2023/02/22 00:22:50;;;;;;;;;;;2.40;1.00;;;;;;4993173;28;19913;-74
2023/02/22 00:25:17;;;;;;;;;;;2.50;1.00;;;;;;4993879;28;20390;-74
2023/02/22 00:27:44;;;;;;;;;;;2.40;1.00;;;;;;4993539;28;19936;-74
2023/02/22 00:30:17;;;;;;;;;;;2.30;1.00;;;;;;4992687;28;19913;-74
2023/02/22 00:32:47;;;;;;;;;;;2.20;1.00;;;;;;4997096;28;20274;-74
2023/02/22 00:35:13;;;;;;;;;;;2.20;1.00;;;;;;4998952;28;20024;-75
2023/02/22 00:37:42;;;;;;;;;;;2.10;1.00;;;;;;4993322;28;19925;-76
2023/02/22 00:40:09;;;;;;;;;;;2.10;1.00;;;;;;4976544;28;19924;-74
2023/02/22 00:42:36;;;;;;;;;;;2.00;1.00;;;;;;4979827;28;19929;-76
2023/02/22 00:45:02;;;;;;;;;;;1.90;1.00;;;;;;4976417;28;19914;-74
2023/02/22 00:47:29;;;;;;;;;;;1.90;4.80;;;;;;4992587;28;19913;-76
2023/02/22 00:49:55;;;;;;;;;;;1.90;6.80;;;;;;4992333;28;20352;-76
2023/02/22 00:52:21;;;;;;;;;;;1.90;5.20;;;;;;4992477;28;19917;-76
2023/02/22 00:54:47;;;;;;;;;;;1.90;3.80;;;;;;4996023;28;19920;-76
2023/02/22 00:57:13;;;;;;;;;;;1.80;6.90;;;;;;4995277;28;19956;-76
2023/02/22 00:59:39;;;;;;;;;;;1.80;7.30;;;;;;4994693;28;20275;-75
2023/02/22 01:02:05;;;;;;;;;;;1.80;9.20;;;;;;4990651;28;19921;-75
2023/02/22 01:04:31;;;;;;;;;;;1.60;9.50;;;;;;4993372;28;19918;-75
2023/02/22 01:06:59;;;;;;;;;;;1.50;13.70;;;;;;4990277;28;19914;-76
2023/02/22 01:09:26;;;;;;;;;;;1.60;17.60;;;;;;4962873;28;19910;-76
2023/02/22 01:11:54;;;;;;;;;;;1.60;20.80;;;;;;4991460;28;19913;-76
2023/02/22 01:14:21;;;;;;;;;;;1.50;22.10;;;;;;4984244;28;19921;-75
2023/02/22 01:16:47;;;;;;;;;;;1.50;22.90;;;;;;4992264;28;19921;-75
2023/02/22 01:19:13;;;;;;;;;;;1.50;24.20;;;;;;4995905;28;20395;-75
2023/02/22 01:21:39;;;;;;;;;;;1.40;25.90;;;;;;4976487;28;20351;-75
2023/02/22 01:24:05;;;;;;;;;;;1.40;29.40;;;;;;4992161;28;19913;-75
2023/02/22 01:26:31;;;;;;;;;;;1.40;32.50;;;;;;5004204;28;19914;-75
2023/02/22 01:28:57;;;;;;;;;;;1.40;32.80;;;;;;4987466;28;20032;-75
2023/02/22 01:31:25;;;;;;;;;;;1.40;33.20;;;;;;4995343;28;19921;-75
2023/02/22 01:33:52;;;;;;;;;;;1.40;33.90;;;;;;4991283;28;20369;-75
2023/02/22 01:36:18;;;;;;;;;;;1.40;32.90;;;;;;4992630;28;19918;-75
2023/02/22 01:38:45;;;;;;;;;;;1.40;34.10;;;;;;4977507;28;19921;-76
2023/02/22 01:41:11;;;;;;;;;;;1.30;34.90;;;;;;4991272;28;19913;-76
2023/02/22 01:43:37;;;;;;;;;;;1.30;34.30;;;;;;4992607;28;19910;-75
2023/02/22 01:46:04;;;;;;;;;;;1.20;34.50;;;;;;4992096;28;19953;-75
2023/02/22 01:48:35;;;;;;;;;;;1.20;36.80;;;;;;4992892;28;20267;-75
2023/02/22 01:51:09;;;;;;;;;;;1.20;38.40;;;;;;4990780;28;20381;-75
2023/02/22 01:53:58;;;;;;;;;;;1.20;40.40;;;;;;4997672;28;19918;-76
2023/02/22 01:56:25;;;;;;;;;;;1.30;43.30;;;;;;4985982;28;19925;-75
2023/02/22 01:58:56;;;;;;;;;;;1.40;47.20;;;;;;4980610;28;19918;-75
2023/02/22 02:01:23;;;;;;;;;;;1.50;46.30;;;;;;4997470;28;19922;-75
2023/02/22 02:03:50;;;;;;;;;;;1.50;40.80;;;;;;4995642;28;19918;-76
2023/02/22 02:06:17;;;;;;;;;;;1.40;32.10;;;;;;4995505;28;19913;-75
2023/02/22 02:08:46;;;;;;;;;;;1.40;26.50;;;;;;4996473;28;19913;-75
2023/02/22 02:11:12;;;;;;;;;;;1.40;22.80;;;;;;4982443;28;19910;-75
2023/02/22 02:13:38;;;;;;;;;;;1.40;21.70;;;;;;5000597;28;19995;-75
2023/02/22 02:16:04;;;;;;;;;;;1.40;22.60;;;;;;5002514;28;19917;-75
2023/02/22 02:18:31;;;;;;;;;;;1.40;21.10;;;;;;4995386;28;19918;-75
2023/02/22 02:21:17;;;;;;;;;;;1.30;19.00;;;;;;4977751;28;19921;-75
2023/02/22 02:24:10;;;;;;;;;;;1.30;17.60;;;;;;4999217;28;19921;-75
2023/02/22 02:27:03;;;;;;;;;;;1.20;16.50;;;;;;4999008;28;20398;-75
2023/02/22 02:29:29;;;;;;;;;;;1.20;17.90;;;;;;4965461;28;19913;-75
2023/02/22 02:31:57;;;;;;;;;;;1.10;20.70;;;;;;4993595;28;19916;-75
2023/02/22 02:34:31;;;;;;;;;;;1.20;24.60;;;;;;4995887;28;19929;-75
2023/02/22 02:37:06;;;;;;;;;;;1.20;27.80;;;;;;4998472;28;19925;-74
2023/02/22 02:39:35;;;;;;;;;;;1.20;28.80;;;;;;4995899;28;19925;-75
2023/02/22 02:42:05;;;;;;;;;;;1.20;26.30;;;;;;4994567;28;19926;-75
2023/02/22 02:44:54;;;;;;;;;;;1.20;24.20;;;;;;4995809;28;19918;-74
2023/02/22 02:47:26;;;;;;;;;;;1.20;20.40;;;;;;4974938;28;19921;-74
2023/02/22 02:49:58;;;;;;;;;;;1.10;17.30;;;;;;4983213;28;19925;-75
2023/02/22 02:52:26;;;;;;;;;;;1.10;15.40;;;;;;4998186;28;19989;-75
2023/02/22 02:54:52;;;;;;;;;;;1.10;16.30;;;;;;4998082;28;19914;-75
2023/02/22 02:57:18;;;;;;;;;;;1.10;15.50;;;;;;4993915;28;19918;-74
2023/02/22 02:59:45;;;;;;;;;;;1.10;13.30;;;;;;4994482;28;19914;-75
2023/02/22 03:02:29;;;;;;;;;;;1.00;12.70;;;;;;4993956;28;19930;-74
2023/02/22 03:04:58;;;;;;;;;;;1.00;12.60;;;;;;4994404;28;20297;-74
2023/02/22 03:07:32;;;;;;;;;;;0.90;12.30;;;;;;4995262;28;19917;-75
2023/02/22 03:10:16;;;;;;;;;;;1.00;15.50;;;;;;4992068;28;19921;-74
2023/02/22 03:13:00;;;;;;;;;;;1.00;17.60;;;;;;4999020;28;20274;-75
2023/02/22 03:15:31;;;;;;;;;;;0.90;18.70;;;;;;4993895;28;19914;-74
2023/02/22 03:18:05;;;;;;;;;;;0.90;20.20;;;;;;4979983;28;19918;-75
2023/02/22 03:20:34;;;;;;;;;;;0.80;21.10;;;;;;4992164;28;19925;-74
2023/02/22 03:23:15;;;;;;;;;;;0.80;24.00;;;;;;4990678;28;20389;-74
2023/02/22 03:25:47;;;;;;;;;;;0.90;26.40;;;;;;4994864;28;20270;-74
2023/02/22 03:28:16;;;;;;;;;;;1.00;28.10;;;;;;4997682;28;19921;-76
2023/02/22 03:31:02;;;;;;;;;;;0.90;25.50;;;;;;4993058;28;19914;-75
2023/02/22 03:33:32;;;;;;;;;;;0.80;22.10;;;;;;5001196;28;19921;-75
2023/02/22 03:36:02;;;;;;;;;;;0.90;22.40;;;;;;4979571;28;19922;-74
2023/02/22 03:38:30;;;;;;;;;;;0.80;18.90;;;;;;4994730;28;19918;-75
2023/02/22 03:40:59;;;;;;;;;;;0.70;16.80;;;;;;4975985;28;19920;-75
2023/02/22 03:43:30;;;;;;;;;;;0.70;16.60;;;;;;4994418;28;19914;-75
2023/02/22 03:46:00;;;;;;;;;;;0.60;17.80;;;;;;4978375;28;19920;-75
2023/02/22 03:48:29;;;;;;;;;;;0.60;22.80;;;;;;4981987;28;19913;-75
2023/02/22 03:50:57;;;;;;;;;;;0.60;29.20;;;;;;4992240;28;20287;-75
2023/02/22 03:53:24;;;;;;;;;;;0.50;33.90;;;;;;4981373;28;19921;-75
2023/02/22 03:55:54;;;;;;;;;;;0.50;38.30;;;;;;4992150;28;19913;-76
2023/02/22 03:58:23;;;;;;;;;;;0.50;42.80;;;;;;4983383;28;20343;-75
2023/02/22 04:00:51;;;;;;;;;;;0.50;48.20;;;;;;4987268;28;19922;-76
2023/02/22 04:03:21;;;;;;;;;;;0.50;49.80;;;;;;4994621;28;19917;-75
2023/02/22 04:05:47;;;;;;;;;;;0.40;50.50;;;;;;4994535;28;19914;-75
2023/02/22 04:08:13;;;;;;;;;;;0.40;50.70;;;;;;4993511;28;19910;-75
2023/02/22 04:10:39;;;;;;;;;;;0.40;53.40;;;;;;4989917;28;19921;-75
2023/02/22 04:13:05;;;;;;;;;;;0.40;57.20;;;;;;4991373;28;19925;-75
2023/02/22 04:15:33;;;;;;;;;;;0.40;58.10;;;;;;4977258;28;19913;-74
2023/02/22 04:18:04;;;;;;;;;;;0.40;57.80;;;;;;4979323;28;19918;-75
2023/02/22 04:20:30;;;;;;;;;;;0.40;52.00;;;;;;4976599;28;19921;-75
2023/02/22 04:23:07;;;;;;;;;;;0.50;49.10;;;;;;4982084;28;19913;-75
2023/02/22 04:25:36;;;;;;;;;;;0.40;48.20;;;;;;4978973;28;19921;-75
2023/02/22 04:28:09;;;;;;;;;;;0.40;46.90;;;;;;4992692;28;19913;-75
2023/02/22 04:30:51;;;;;;;;;;;0.50;46.60;;;;;;4982492;28;19914;-76
2023/02/22 04:33:18;;;;;;;;;;;0.50;49.60;;;;;;4975106;28;19918;-75
2023/02/22 04:35:45;;;;;;;;;;;0.50;50.60;;;;;;4972044;28;19921;-76
2023/02/22 04:38:12;;;;;;;;;;;0.50;49.30;;;;;;4987065;28;19919;-75
2023/02/22 04:40:39;;;;;;;;;;;0.50;49.30;;;;;;4992573;28;19913;-75
2023/02/22 04:43:06;;;;;;;;;;;0.50;47.30;;;;;;4989934;28;19914;-75
2023/02/22 04:45:32;;;;;;;;;;;0.60;45.70;;;;;;4982074;28;19914;-75
2023/02/22 04:47:58;;;;;;;;;;;0.60;43.40;;;;;;4993099;28;19918;-75
2023/02/22 04:50:24;;;;;;;;;;;0.60;41.80;;;;;;4993260;28;19914;-75
2023/02/22 04:52:50;;;;;;;;;;;0.70;39.30;;;;;;4995039;28;19921;-76
2023/02/22 04:55:16;;;;;;;;;;;0.70;35.60;;;;;;4979968;28;20371;-75
2023/02/22 04:57:43;;;;;;;;;;;0.70;31.30;;;;;;4991329;28;20371;-75
2023/02/22 05:00:14;;;;;;;;;;;0.60;28.10;;;;;;4975193;28;19918;-75
2023/02/22 05:02:40;;;;;;;;;;;0.60;25.70;;;;;;4988237;28;19917;-75
2023/02/22 05:05:06;;;;;;;;;;;0.60;23.60;;;;;;4995307;28;20350;-75
2023/02/22 05:07:32;;;;;;;;;;;0.60;23.40;;;;;;4991755;28;20367;-75
2023/02/22 05:10:01;;;;;;;;;;;0.60;22.80;;;;;;4984566;28;19915;-75
2023/02/22 05:12:27;;;;;;;;;;;0.70;21.90;;;;;;4992687;28;19913;-75
2023/02/22 05:14:53;;;;;;;;;;;0.60;19.10;;;;;;4992683;28;19914;-76
2023/02/22 05:17:19;;;;;;;;;;;0.60;17.60;;;;;;4980091;28;20266;-76
2023/02/22 05:19:46;;;;;;;;;;;0.60;17.70;;;;;;5001747;28;20008;-75
2023/02/22 05:22:12;;;;;;;;;;;0.60;17.00;;;;;;5005203;28;20069;-75
2023/02/22 05:24:38;;;;;;;;;;;0.60;17.00;;;;;;5000307;28;20012;-75
2023/02/22 05:27:04;;;;;;;;;;;0.70;18.40;;;;;;4991825;28;19985;-76
2023/02/22 05:29:30;;;;;;;;;;;0.60;17.20;;;;;;4991893;28;19945;-75
2023/02/22 05:31:57;;;;;;;;;;;0.60;16.80;;;;;;4992370;28;19932;-75
2023/02/22 05:34:23;;;;;;;;;;;0.60;18.70;;;;;;4995618;28;19910;-75
2023/02/22 05:36:48;;;;;;;;;;;0.60;19.60;;;;;;4972697;28;19918;-75
2023/02/22 05:39:14;;;;;;;;;;;0.60;20.40;;;;;;4995159;28;19984;-75
2023/02/22 05:41:40;;;;;;;;;;;0.60;21.40;;;;;;4996884;28;20327;-75
2023/02/22 05:44:06;;;;;;;;;;;0.60;20.70;;;;;;4995811;28;20063;-75
2023/02/22 05:46:32;;;;;;;;;;;0.70;21.50;;;;;;4995789;28;20422;-75
2023/02/22 05:48:58;;;;;;;;;;;0.70;21.80;;;;;;4994376;28;19914;-75
2023/02/22 05:51:24;;;;;;;;;;;0.80;21.40;;;;;;4996447;28;19913;-75
2023/02/22 05:53:51;;;;;;;;;;;0.80;20.70;;;;;;4999918;28;19963;-75
2023/02/22 05:56:21;;;;;;;;;;;0.80;17.70;;;;;;4996684;28;19914;-75
2023/02/22 05:58:47;;;;;;;;;;;0.80;15.80;;;;;;4998699;28;19922;-75
2023/02/22 06:01:13;;;;;;;;;;;0.80;12.80;;;;;;4995441;28;19980;-75
2023/02/22 06:03:39;;;;;;;;;;;0.70;10.60;;;;;;4996762;28;20433;-75
2023/02/22 06:06:05;;;;;;;;;;;0.80;9.30;;;;;;4995745;28;20382;-75
2023/02/22 06:08:31;;;;;;;;;;;0.80;9.60;;;;;;4994365;28;19914;-75
2023/02/22 06:10:57;;;;;;;;;;;0.80;10.00;;;;;;4983941;28;20339;-75
2023/02/22 06:13:23;;;;;;;;;;;0.80;10.10;;;;;;4982684;28;19914;-75
2023/02/22 06:15:49;;;;;;;;;;;0.80;10.90;;;;;;4996052;28;20355;-73
2023/02/22 06:18:15;;;;;;;;;;;0.80;9.80;;;;;;4993602;28;19921;-75
2023/02/22 06:20:41;;;;;;;;;;;0.80;10.50;;;;;;4996111;28;19921;-75
2023/02/22 06:23:07;;;;;;;;;;;0.90;15.60;;;;;;4995247;28;19920;-75
2023/02/22 06:25:33;;;;;;;;;;;0.90;22.70;;;;;;4997634;28;19909;-75
2023/02/22 06:27:59;;;;;;;;;;;0.80;35.40;;;;;;4976466;28;19914;-76
2023/02/22 06:30:26;;;;;;;;;;;0.90;50.80;;;;;;4996208;28;19921;-75
2023/02/22 06:32:52;;;;;;;;;;;0.80;63.40;;;;;;4995589;28;19920;-76
2023/02/22 06:35:18;;;;;;;;;;;0.80;80.00;;;;;;4995188;28;19920;-75
2023/02/22 06:37:44;;;;;;;;;;;0.90;95.70;;;;;;4994010;28;19937;-76
2023/02/22 06:40:11;;;;;;;;;;;0.80;99.90;;;;;;4996731;28;19925;-75
2023/02/22 06:42:37;;;;;;;;;;;0.80;99.90;;;;;;4999158;28;19913;-75
2023/02/22 06:45:03;;;;;;;;;;;0.90;99.90;;;;;;4993980;28;19918;-75
2023/02/22 06:47:29;;;;;;;;;;;0.90;99.90;;;;;;4993995;28;19917;-75
2023/02/22 06:49:56;;;;;;;;;;;1.00;99.90;;;;;;4999722;28;19913;-75
2023/02/22 06:52:22;;;;;;;;;;;1.00;99.90;;;;;;4995648;28;19910;-75
2023/02/22 06:54:48;;;;;;;;;;;1.00;99.90;;;;;;4996869;28;19914;-74
2023/02/22 06:57:15;;;;;;;;;;;1.00;99.90;;;;;;4996387;28;19913;-75
2023/02/22 06:59:41;;;;;;;;;;;1.10;99.90;;;;;;4999711;28;19917;-75
2023/02/22 07:02:09;;;;;;;;;;;1.20;99.90;;;;;;4996160;28;19922;-75
2023/02/22 07:04:35;;;;;;;;;;;1.20;99.90;;;;;;4994233;28;19914;-75
2023/02/22 07:07:01;;;;;;;;;;;1.30;99.90;;;;;;4994356;28;20607;-75
2023/02/22 07:09:27;;;;;;;;;;;1.40;99.90;;;;;;4996548;28;20018;-75
2023/02/22 07:11:53;;;;;;;;;;;1.50;99.90;;;;;;4994883;28;20259;-74
2023/02/22 07:14:19;;;;;;;;;;;1.60;99.90;;;;;;4994685;28;19937;-74
2023/02/22 07:16:45;;;;;;;;;;;1.70;99.90;;;;;;4994387;28;19917;-74
2023/02/22 07:19:11;;;;;;;;;;;1.80;99.90;;;;;;4993652;28;19925;-74
2023/02/22 07:21:37;;;;;;;;;;;2.00;99.90;;;;;;4994798;28;19913;-74
2023/02/22 07:24:03;;;;;;;;;;;2.00;99.90;;;;;;4993949;28;19914;-74
2023/02/22 07:26:29;;;;;;;;;;;2.10;99.90;;;;;;5010324;28;19920;-73
2023/02/22 07:28:55;;;;;;;;;;;2.20;99.90;;;;;;4992926;28;20511;-74
2023/02/22 07:31:21;;;;;;;;;;;2.30;99.90;;;;;;4994281;28;19918;-73
2023/02/22 07:33:48;;;;;;;;;;;2.40;99.90;;;;;;4980904;28;19929;-74
2023/02/22 07:36:16;;;;;;;;;;;2.50;99.90;;;;;;5004129;28;20519;-74
2023/02/22 07:38:44;;;;;;;;;;;2.60;94.70;;;;;;4992672;28;20302;-73
2023/02/22 07:41:10;;;;;;;;;;;2.60;84.30;;;;;;4981151;28;19918;-74
2023/02/22 07:43:36;;;;;;;;;;;2.80;75.00;;;;;;4998686;28;19913;-74
2023/02/22 07:46:03;;;;;;;;;;;3.00;59.00;;;;;;4977610;28;19921;-73
2023/02/22 07:48:30;;;;;;;;;;;3.10;43.20;;;;;;4993302;28;19921;-75
2023/02/22 07:50:56;;;;;;;;;;;3.30;28.60;;;;;;4985397;28;19924;-74
2023/02/22 07:53:23;;;;;;;;;;;3.30;15.90;;;;;;4988404;28;19928;-74
2023/02/22 07:55:50;;;;;;;;;;;3.50;8.30;;;;;;4997590;28;19920;-74
2023/02/22 07:58:21;;;;;;;;;;;3.60;1.00;;;;;;4997310;28;19918;-74
2023/02/22 08:00:47;;;;;;;;;;;3.70;1.00;;;;;;5001612;28;19929;-73
2023/02/22 08:03:14;;;;;;;;;;;3.90;1.00;;;;;;4995183;28;19914;-73
2023/02/22 08:05:41;;;;;;;;;;;4.10;1.00;;;;;;4996392;28;19918;-73
2023/02/22 08:08:07;;;;;;;;;;;4.50;1.00;;;;;;4994464;28;19917;-73
2023/02/22 08:10:34;;;;;;;;;;;4.90;1.00;;;;;;4980730;28;20279;-73
2023/02/22 08:13:00;;;;;;;;;;;5.20;1.00;;;;;;4982525;28;19914;-74
2023/02/22 08:15:28;;;;;;;;;;;5.30;1.00;;;;;;4996270;28;19917;-73
2023/02/22 08:17:55;;;;;;;;;;;5.50;1.00;;;;;;4991434;28;19929;-73
2023/02/22 08:20:21;;;;;;;;;;;5.60;1.00;;;;;;5004849;28;19914;-74
2023/02/22 08:22:47;;;;;;;;;;;5.80;1.00;;;;;;5007846;28;20398;-74
2023/02/22 08:25:14;;;;;;;;;;;6.00;1.00;;;;;;5000338;28;20363;-74
2023/02/22 08:27:40;;;;;;;;;;;6.30;1.00;;;;;;4999501;28;20386;-74
2023/02/22 08:30:07;;;;;;;;;;;6.50;1.00;;;;;;5005254;28;19918;-74
2023/02/22 08:32:34;;;;;;;;;;;6.70;1.00;;;;;;4982634;28;19936;-74
2023/02/22 08:35:01;;;;;;;;;;;6.80;1.00;;;;;;4987887;28;20332;-74
2023/02/22 08:37:27;;;;;;;;;;;7.00;1.00;;;;;;4994241;28;20383;-73
2023/02/22 08:39:54;;;;;;;;;;;7.30;1.00;;;;;;4994665;28;19953;-73
2023/02/22 08:42:21;;;;;;;;;;;7.40;1.00;;;;;;4979628;28;19920;-74
2023/02/22 08:44:46;;;;;;;;;;;7.60;1.00;;;;;;4993627;28;19914;-73
2023/02/22 08:47:12;;;;;;;;;;;7.50;1.00;;;;;;4982965;28;20446;-74
2023/02/22 08:49:38;;;;;;;;;;;7.40;1.00;;;;;;4998384;28;19914;-74
2023/02/22 08:52:04;;;;;;;;;;;7.60;1.00;;;;;;4992891;28;19914;-73
2023/02/22 08:54:30;;;;;;;;;;;7.50;1.00;;;;;;4993093;28;20406;-75
2023/02/22 08:56:56;;;;;;;;;;;7.70;1.00;;;;;;4996207;28;19925;-76
2023/02/22 08:59:22;;;;;;;;;;;7.90;99.90;;;;;;4997831;28;19960;-74
2023/02/22 09:01:48;;;;;;;;;;;8.00;99.90;;;;;;4993162;28;19934;-77
2023/02/22 09:04:14;;;;;;;;;;;8.10;99.90;;;;;;4990986;28;19914;-76
2023/02/22 09:06:41;;;;;;;;;;;8.30;99.90;;;;;;4992560;28;19921;-79
2023/02/22 09:09:07;;;;;;;;;;;8.40;99.90;;;;;;4981804;28;19937;-76
2023/02/22 09:11:33;;;;;;;;;;;8.60;99.90;;;;;;4983639;28;19909;-75
2023/02/22 09:14:00;;;;;;;;;;;8.80;99.90;;;;;;4992681;28;20344;-76
2023/02/22 09:16:26;;;;;;;;;;;9.00;99.90;;;;;;4979126;28;19917;-76
2023/02/22 09:18:52;;;;;;;;;;;9.10;99.90;;;;;;4991555;28;19922;-76
2023/02/22 09:21:18;;;;;;;;;;;9.30;99.90;;;;;;4995235;28;19990;-75
2023/02/22 09:23:45;;;;;;;;;;;9.40;99.90;;;;;;4993902;28;20004;-76
2023/02/22 09:26:14;;;;;;;;;;;9.60;99.90;;;;;;4996644;28;20247;-76
2023/02/22 09:28:41;;;;;;;;;;;9.80;99.90;;;;;;4982744;28;19914;-75
2023/02/22 09:31:07;;;;;;;;;;;9.60;99.90;;;;;;4996112;28;19918;-76
2023/02/22 09:33:33;;;;;;;;;;;9.70;99.90;;;;;;4964090;28;19914;-76
2023/02/22 09:36:01;;;;;;;;;;;9.70;99.90;;;;;;4993190;28;19920;-76
2023/02/22 09:38:28;;;;;;;;;;;9.70;99.90;;;;;;4986784;28;19921;-77
2023/02/22 09:41:03;;;;;;;;;;;9.50;99.90;;;;;;4996836;28;19914;-76
2023/02/22 09:43:35;;;;;;;;;;;9.60;99.90;;;;;;4993659;28;20310;-76
2023/02/22 09:46:12;;;;;;;;;;;9.60;99.90;;;;;;4996149;28;19920;-76
2023/02/22 09:48:44;;;;;;;;;;;9.40;99.90;;;;;;4991382;28;19913;-74
2023/02/22 09:51:14;;;;;;;;;;;9.40;99.90;;;;;;4978347;28;19921;-76
2023/02/22 09:53:43;;;;;;;;;;;9.60;99.90;;;;;;4992986;28;19921;-77
2023/02/22 09:56:14;;;;;;;;;;;9.70;99.90;;;;;;4994820;28;20290;-77
2023/02/22 09:58:45;;;;;;;;;;;9.80;99.90;;;;;;4995982;28;19929;-77
2023/02/22 10:01:31;;;;;;;;;;;9.70;99.90;;;;;;4987983;28;20383;-77
2023/02/22 10:03:59;;;;;;;;;;;9.50;99.90;;;;;;4970422;28;19914;-77
2023/02/22 10:06:28;;;;;;;;;;;9.30;99.90;;;;;;4990901;28;21302;-78
2023/02/22 10:08:57;;;;;;;;;;;9.40;99.90;;;;;;4992172;28;19914;-75
2023/02/22 10:11:28;;;;;;;;;;;9.50;99.90;;;;;;4992068;28;19921;-76
2023/02/22 10:14:01;;;;;;;;;;;9.70;99.90;;;;;;4998891;28;19913;-75
2023/02/22 10:16:33;;;;;;;;;;;9.90;99.90;;;;;;4991555;28;20367;-76
2023/02/22 10:19:09;;;;;;;;;;;10.10;99.90;;;;;;4992317;28;19921;-75
2023/02/22 10:21:47;;;;;;;;;;;10.30;99.90;;;;;;4996130;28;19952;-76
2023/02/22 10:24:23;;;;;;;;;;;10.50;99.90;;;;;;4995556;28;19914;-75
2023/02/22 10:26:49;;;;;;;;;;;10.60;99.90;;;;;;4994600;28;19920;-76
2023/02/22 10:29:25;;;;;;;;;;;10.60;99.90;;;;;;4979886;28;19928;-75
2023/02/22 10:32:00;;;;;;;;;;;10.70;99.90;;;;;;4996400;28;19920;-76
2023/02/22 10:34:29;;;;;;;;;;;10.70;99.90;;;;;;4993951;28;19942;-75
2023/02/22 10:37:16;;;;;;;;;;;10.80;99.90;;;;;;4994146;28;19913;-75
2023/02/22 10:39:42;;;;;;;;;;;11.00;99.90;;;;;;5003223;28;19924;-75
2023/02/22 10:42:08;;;;;;;;;;;11.10;99.90;;;;;;5004088;28;19913;-75
2023/02/22 10:44:35;;;;;;;;;;;11.10;99.90;;;;;;5002303;28;19921;-75
2023/02/22 10:47:04;;;;;;;;;;;11.20;99.90;;;;;;4993672;28;20279;-78
2023/02/22 10:49:35;;;;;;;;;;;11.30;99.90;;;;;;4995949;28;19937;-75
2023/02/22 10:52:02;;;;;;;;;;;11.30;99.90;;;;;;4999206;28;19913;-75
2023/02/22 10:54:33;;;;;;;;;;;11.30;99.90;;;;;;4995660;28;19913;-75
2023/02/22 10:56:59;;;;;;;;;;;11.30;99.90;;;;;;4993835;28;20297;-74
2023/02/22 10:59:33;;;;;;;;;;;11.40;99.90;;;;;;4994992;28;19914;-75
2023/02/22 11:02:00;;;;;;;;;;;11.50;99.90;;;;;;4995701;28;20282;-75
2023/02/22 11:04:26;;;;;;;;;;;11.50;99.90;;;;;;4995041;28;19929;-75
2023/02/22 11:07:15;;;;;;;;;;;11.80;99.90;;;;;;4986377;28;19917;-76
2023/02/22 11:09:45;;;;;;;;;;;11.90;99.90;;;;;;4999093;28;20312;-77
2023/02/22 11:12:16;;;;;;;;;;;12.00;99.90;;;;;;4994675;28;19921;-76
2023/02/22 11:14:42;;;;;;;;;;;12.00;99.90;;;;;;4995405;28;19913;-76
2023/02/22 11:17:11;;;;;;;;;;;12.10;99.90;;;;;;4979265;28;20278;-76
2023/02/22 11:19:44;;;;;;;;;;;12.30;99.90;;;;;;4995307;28;19986;-75
2023/02/22 11:22:13;;;;;;;;;;;12.30;99.90;;;;;;4994083;28;19914;-76
2023/02/22 11:24:49;;;;;;;;;;;12.30;99.90;;;;;;4994977;28;19914;-76
2023/02/22 11:27:30;;;;;;;;;;;12.30;99.90;;;;;;4992820;28;19921;-76
2023/02/22 11:30:11;;;;;;;;;;;12.20;99.90;;;;;;4999088;28;20393;-76
2023/02/22 11:32:43;;;;;;;;;;;12.50;99.90;;;;;;4995790;28;19918;-76
2023/02/22 11:35:27;;;;;;;;;;;12.80;99.90;;;;;;5000711;28;19913;-76
2023/02/22 11:38:12;;;;;;;;;;;12.70;99.90;;;;;;4992541;28;20283;-77
2023/02/22 11:40:39;;;;;;;;;;;12.70;99.90;;;;;;4994258;28;19918;-74
2023/02/22 11:43:12;;;;;;;;;;;12.70;99.90;;;;;;4995704;28;20371;-78
2023/02/22 11:45:53;;;;;;;;;;;12.80;99.90;;;;;;4997994;28;19921;-76
2023/02/22 11:48:22;;;;;;;;;;;13.00;99.90;;;;;;4995651;28;19921;-76
2023/02/22 11:50:58;;;;;;;;;;;12.90;99.90;;;;;;4994649;28;20351;-76
2023/02/22 11:53:24;;;;;;;;;;;12.90;99.90;;;;;;4993833;28;20538;-76
2023/02/22 11:55:56;;;;;;;;;;;12.80;99.90;;;;;;4994914;28;19921;-76
2023/02/22 11:58:28;;;;;;;;;;;12.90;99.90;;;;;;4992149;28;19921;-76
2023/02/22 12:01:05;;;;;;;;;;;12.80;99.90;;;;;;4994137;28;19922;-76
2023/02/22 12:03:47;;;;;;;;;;;12.90;99.90;;;;;;4977140;28;19918;-76
2023/02/22 12:06:23;;;;;;;;;;;13.00;99.90;;;;;;4993271;28;19993;-78
2023/02/22 12:08:55;;;;;;;;;;;13.20;99.90;;;;;;4997044;28;19921;-76
2023/02/22 12:11:24;;;;;;;;;;;13.30;99.90;;;;;;4997044;28;20410;-76
2023/02/22 12:13:57;;;;;;;;;;;13.20;99.90;;;;;;4998125;28;19914;-76
2023/02/22 12:16:45;;;;;;;;;;;13.30;99.90;;;;;;4997744;28;19914;-75
2023/02/22 12:19:14;;;;;;;;;;;13.40;99.90;;;;;;4992035;28;19929;-76
2023/02/22 12:21:42;;;;;;;;;;;13.60;99.90;;;;;;4993826;28;19913;-79
2023/02/22 12:24:15;;;;;;;;;;;13.70;99.90;;;;;;4993561;28;19914;-76
2023/02/22 12:26:46;;;;;;;;;;;13.60;99.90;;;;;;4992399;28;20363;-76
2023/02/22 12:29:26;;;;;;;;;;;13.80;99.90;;;;;;4993455;28;20319;-76
2023/02/22 12:32:01;;;;;;;;;;;13.90;99.90;;;;;;4993564;28;19921;-75
2023/02/22 12:34:39;;;;;;;;;;;14.00;99.90;;;;;;4977487;28;19921;-75
2023/02/22 12:37:18;;;;;;;;;;;14.00;99.90;;;;;;4997929;28;19913;-76
2023/02/22 12:39:49;;;;;;;;;;;14.10;99.90;;;;;;4994559;28;19928;-75
2023/02/22 12:42:17;;;;;;;;;;;14.10;99.90;;;;;;4993907;28;20414;-76
2023/02/22 12:44:47;;;;;;;;;;;14.00;99.90;;;;;;4993311;28;19913;-75
2023/02/22 12:47:15;;;;;;;;;;;14.10;99.90;;;;;;4992510;28;19925;-76
2023/02/22 12:49:51;;;;;;;;;;;14.20;99.90;;;;;;4985465;28;19914;-75
2023/02/22 12:52:17;;;;;;;;;;;14.30;99.90;;;;;;4994747;28;19925;-75
2023/02/22 12:54:52;;;;;;;;;;;14.30;99.90;;;;;;4994515;28;19914;-78
2023/02/22 12:57:18;;;;;;;;;;;14.40;99.90;;;;;;4991275;28;19937;-76
2023/02/22 12:59:52;;;;;;;;;;;14.10;99.90;;;;;;4992019;28;19913;-75
2023/02/22 13:02:30;;;;;;;;;;;14.30;99.90;;;;;;4992891;28;19933;-76
2023/02/22 13:04:56;;;;;;;;;;;14.40;99.90;;;;;;4996585;28;20290;-76
2023/02/22 13:07:41;;;;;;;;;;;14.40;99.90;;;;;;4994161;28;19913;-75
2023/02/22 13:10:10;;;;;;;;;;;14.50;99.90;;;;;;4996427;28;19914;-76
2023/02/22 13:12:39;;;;;;;;;;;14.50;99.90;;;;;;4996704;28;19940;-74
2023/02/22 13:15:29;;;;;;;;;;;14.50;99.90;;;;;;4993221;28;19910;-75
2023/02/22 13:18:00;;;;;;;;;;;14.50;99.90;;;;;;4991523;28;19944;-76
2023/02/22 13:20:33;;;;;;;;;;;14.70;99.90;;;;;;4991760;28;20366;-76
2023/02/22 13:23:13;;;;;;;;;;;14.80;99.90;;;;;;4992748;28;19925;-76
2023/02/22 13:25:43;;;;;;;;;;;14.80;99.90;;;;;;4996172;28;20378;-75
2023/02/22 13:28:17;;;;;;;;;;;14.80;99.90;;;;;;4990569;28;20359;-76
2023/02/22 13:30:56;;;;;;;;;;;15.00;99.90;;;;;;4993005;28;19918;-74
2023/02/22 13:33:46;;;;;;;;;;;15.00;99.90;;;;;;4997121;28;20363;-75
2023/02/22 13:36:21;;;;;;;;;;;15.00;99.90;;;;;;4979419;28;19953;-75
2023/02/22 13:38:48;;;;;;;;;;;14.90;99.90;;;;;;4995901;28;20402;-75
2023/02/22 13:41:13;;;;;;;;;;;14.80;99.90;;;;;;4992010;28;19914;-75
2023/02/22 13:43:58;;;;;;;;;;;14.90;99.90;;;;;;4992648;28;19914;-74
2023/02/22 13:46:30;;;;;;;;;;;14.80;99.90;;;;;;4990757;28;19918;-75
2023/02/22 13:49:19;;;;;;;;;;;14.90;99.90;;;;;;4996313;28;20314;-75
2023/02/22 13:51:50;;;;;;;;;;;14.90;99.90;;;;;;4977665;28;19914;-75
2023/02/22 13:54:22;;;;;;;;;;;14.70;99.90;;;;;;4994053;28;19918;-76
2023/02/22 13:56:49;;;;;;;;;;;14.60;99.90;;;;;;4995024;28;20370;-76
2023/02/22 13:59:22;;;;;;;;;;;14.50;99.90;;;;;;4983178;28;19922;-75
2023/02/22 14:01:48;;;;;;;;;;;14.50;99.90;;;;;;5000214;28;19928;-75
2023/02/22 14:04:38;;;;;;;;;;;14.60;99.90;;;;;;4995659;28;20282;-75
2023/02/22 14:07:24;;;;;;;;;;;14.70;99.90;;;;;;4987164;28;19921;-75
2023/02/22 14:09:51;;;;;;;;;;;14.90;99.90;;;;;;5004226;28;19937;-74
2023/02/22 14:12:29;;;;;;;;;;;14.90;99.90;;;;;;4996974;28;19924;-75
2023/02/22 14:15:12;;;;;;;;;;;15.00;99.90;;;;;;4996282;28;20278;-74
2023/02/22 14:17:48;;;;;;;;;;;15.10;99.90;;;;;;4995754;28;19929;-75
2023/02/22 14:20:28;;;;;;;;;;;15.00;99.90;;;;;;4995831;28;20248;-75
2023/02/22 14:22:55;;;;;;;;;;;15.10;99.90;;;;;;4999561;28;20274;-75
2023/02/22 14:25:32;;;;;;;;;;;15.20;99.90;;;;;;4997136;28;19914;-76
2023/02/22 14:27:59;;;;;;;;;;;15.10;99.90;;;;;;4994390;28;19918;-76
2023/02/22 14:30:26;;;;;;;;;;;15.00;99.90;;;;;;5001076;28;19910;-78
2023/02/22 14:32:52;;;;;;;;;;;15.00;99.90;;;;;;4977159;28;19918;-75
2023/02/22 14:35:20;;;;;;;;;;;15.00;99.90;;;;;;4997854;28;20013;-75
2023/02/22 14:37:53;;;;;;;;;;;15.00;99.90;;;;;;4997071;28;19918;-75
2023/02/22 14:40:26;;;;;;;;;;;14.90;99.90;;;;;;5000167;28;19921;-74
2023/02/22 14:43:01;;;;;;;;;;;15.00;99.90;;;;;;5001234;28;19914;-75